sensor_id;sensor_type;location;lat;lon;timestamp;pressure;altitude;pressure_sealevel;temperature;humidity
1616;BME280;801;47.982;7.810;2023-02-15T00:01:30;99983.41;;;2.10;100.00
1616;BME280;801;47.982;7.810;2023-02-15T00:03:58;99982.75;;;2.00;100.00
1616;BME280;801;47.982;7.810;2023-02-15T00:06:25;99985.16;;;1.62;100.00
1616;BME280;801;47.982;7.810;2023-02-15T00:08:53;99987.06;;;2.01;100.00
1616;BME280;801;47.982;7.810;2023-02-15T00:11:20;99989.53;;;2.11;100.00
1616;BME280;801;47.982;7.810;2023-02-15T00:14:06;99990.84;;;2.15;100.00
1616;BME280;801;47.982;7.810;2023-02-15T00:16:33;99978.41;;;2.15;100.00
1616;BME280;801;47.982;7.810;2023-02-15T00:19:01;99985.19;;;2.18;100.00
1616;BME280;801;47.982;7.810;2023-02-15T00:21:28;99976.03;;;2.28;100.00
1616;BME280;801;47.982;7.810;2023-02-15T00:23:55;99979.00;;;2.25;100.00
1616;BME280;801;47.982;7.810;2023-02-15T00:26:21;99979.53;;;2.21;100.00
1616;BME280;801;47.982;7.810;2023-02-15T00:28:48;99973.13;;;2.07;100.00
1616;BME280;801;47.982;7.810;2023-02-15T00:31:14;99981.88;;;2.16;100.00
1616;BME280;801;47.982;7.810;2023-02-15T00:33:41;99977.81;;;1.97;100.00
1616;BME280;801;47.982;7.810;2023-02-15T00:36:11;99982.88;;;1.51;100.00
1616;BME280;801;47.982;7.810;2023-02-15T00:38:38;99979.53;;;1.65;100.00
1616;BME280;801;47.982;7.810;2023-02-15T00:41:06;99983.19;;;1.64;100.00
1616;BME280;801;47.982;7.810;2023-02-15T00:43:33;99983.69;;;1.68;100.00
1616;BME280;801;47.982;7.810;2023-02-15T00:46:01;99986.69;;;1.40;100.00
1616;BME280;801;47.982;7.810;2023-02-15T00:48:28;99978.22;;;1.61;100.00
1616;BME280;801;47.982;7.810;2023-02-15T00:50:57;99975.34;;;1.87;100.00
1616;BME280;801;47.982;7.810;2023-02-15T00:53:26;99960.69;;;1.43;100.00
1616;BME280;801;47.982;7.810;2023-02-15T00:55:53;99966.97;;;1.59;100.00
1616;BME280;801;47.982;7.810;2023-02-15T00:58:19;99971.91;;;1.70;100.00
1616;BME280;801;47.982;7.810;2023-02-15T01:00:47;99964.63;;;1.56;100.00
1616;BME280;801;47.982;7.810;2023-02-15T01:03:16;99962.44;;;1.84;100.00
1616;BME280;801;47.982;7.810;2023-02-15T01:05:43;99962.69;;;1.41;100.00
1616;BME280;801;47.982;7.810;2023-02-15T01:08:09;99956.94;;;1.94;100.00
1616;BME280;801;47.982;7.810;2023-02-15T01:10:37;99959.56;;;1.94;100.00
1616;BME280;801;47.982;7.810;2023-02-15T01:13:04;99970.53;;;1.91;100.00
1616;BME280;801;47.982;7.810;2023-02-15T01:15:33;99964.03;;;1.21;100.00
1616;BME280;801;47.982;7.810;2023-02-15T01:18:00;99960.38;;;0.97;100.00
1616;BME280;801;47.982;7.810;2023-02-15T01:20:28;99963.97;;;1.54;100.00
1616;BME280;801;47.982;7.810;2023-02-15T01:22:56;99960.97;;;1.73;100.00
1616;BME280;801;47.982;7.810;2023-02-15T01:25:23;99964.63;;;1.64;100.00
1616;BME280;801;47.982;7.810;2023-02-15T01:27:51;99971.25;;;1.52;100.00
1616;BME280;801;47.982;7.810;2023-02-15T01:30:18;99970.94;;;0.89;100.00
1616;BME280;801;47.982;7.810;2023-02-15T01:32:45;99977.06;;;0.98;100.00
1616;BME280;801;47.982;7.810;2023-02-15T01:35:12;99974.63;;;1.21;100.00
1616;BME280;801;47.982;7.810;2023-02-15T01:37:38;99974.09;;;1.42;100.00
1616;BME280;801;47.982;7.810;2023-02-15T01:40:07;99963.34;;;1.02;100.00
1616;BME280;801;47.982;7.810;2023-02-15T01:42:34;99967.50;;;0.97;100.00
1616;BME280;801;47.982;7.810;2023-02-15T01:45:04;99967.94;;;0.68;100.00
1616;BME280;801;47.982;7.810;2023-02-15T01:47:35;99968.47;;;0.88;100.00
1616;BME280;801;47.982;7.810;2023-02-15T01:50:08;99962.84;;;0.74;100.00
1616;BME280;801;47.982;7.810;2023-02-15T01:52:37;99974.91;;;0.93;100.00
1616;BME280;801;47.982;7.810;2023-02-15T01:55:06;99960.66;;;0.61;100.00
1616;BME280;801;47.982;7.810;2023-02-15T01:57:34;99964.69;;;0.98;100.00
1616;BME280;801;47.982;7.810;2023-02-15T02:00:05;99951.44;;;1.15;100.00
1616;BME280;801;47.982;7.810;2023-02-15T02:02:33;99960.38;;;0.97;100.00
1616;BME280;801;47.982;7.810;2023-02-15T02:05:01;99955.38;;;1.27;100.00
1616;BME280;801;47.982;7.810;2023-02-15T02:07:33;99960.34;;;1.14;100.00
1616;BME280;801;47.982;7.810;2023-02-15T02:10:01;99955.38;;;1.27;100.00
1616;BME280;801;47.982;7.810;2023-02-15T02:12:28;99950.91;;;1.44;100.00
1616;BME280;801;47.982;7.810;2023-02-15T02:14:56;99948.78;;;1.31;100.00
1616;BME280;801;47.982;7.810;2023-02-15T02:17:34;99950.41;;;0.75;100.00
1616;BME280;801;47.982;7.810;2023-02-15T02:20:17;99941.00;;;0.80;100.00
1616;BME280;801;47.982;7.810;2023-02-15T02:23:25;99947.75;;;0.67;100.00
1616;BME280;801;47.982;7.810;2023-02-15T02:26:12;99942.97;;;0.70;100.00
1616;BME280;801;47.982;7.810;2023-02-15T02:29:17;99936.72;;;-0.22;100.00
1616;BME280;801;47.982;7.810;2023-02-15T02:32:06;99934.00;;;-0.04;100.00
1616;BME280;801;47.982;7.810;2023-02-15T02:34:42;99931.03;;;-0.01;100.00
1616;BME280;801;47.982;7.810;2023-02-15T02:37:19;99926.34;;;0.35;100.00
1616;BME280;801;47.982;7.810;2023-02-15T02:39:53;99931.59;;;0.19;100.00
1616;BME280;801;47.982;7.810;2023-02-15T02:42:27;99930.91;;;0.84;100.00
1616;BME280;801;47.982;7.810;2023-02-15T02:45:00;99939.84;;;0.91;100.00
1616;BME280;801;47.982;7.810;2023-02-15T02:47:32;99933.25;;;1.12;100.00
1616;BME280;801;47.982;7.810;2023-02-15T02:50:09;99927.75;;;1.38;100.00
1616;BME280;801;47.982;7.810;2023-02-15T02:52:39;99923.59;;;0.45;100.00
1616;BME280;801;47.982;7.810;2023-02-15T02:55:10;99922.97;;;0.92;100.00
1616;BME280;801;47.982;7.810;2023-02-15T02:57:43;99921.81;;;0.70;100.00
1616;BME280;801;47.982;7.810;2023-02-15T03:00:12;99919.31;;;0.93;100.00
1616;BME280;801;47.982;7.810;2023-02-15T03:02:44;99929.94;;;1.10;100.00
1616;BME280;801;47.982;7.810;2023-02-15T03:05:15;99931.88;;;1.40;100.00
1616;BME280;801;47.982;7.810;2023-02-15T03:07:48;99930.25;;;1.23;100.00
1616;BME280;801;47.982;7.810;2023-02-15T03:10:18;99929.25;;;0.75;100.00
1616;BME280;801;47.982;7.810;2023-02-15T03:12:48;99933.22;;;0.71;100.00
1616;BME280;801;47.982;7.810;2023-02-15T03:15:16;99927.09;;;0.54;100.00
1616;BME280;801;47.982;7.810;2023-02-15T03:17:49;99926.84;;;0.31;100.00
1616;BME280;801;47.982;7.810;2023-02-15T03:20:22;99929.50;;;-0.46;100.00
1616;BME280;801;47.982;7.810;2023-02-15T03:22:53;99931.53;;;-0.40;100.00
1616;BME280;801;47.982;7.810;2023-02-15T03:25:22;99922.06;;;-0.16;100.00
1616;BME280;801;47.982;7.810;2023-02-15T03:27:59;99929.50;;;-0.46;100.00
1616;BME280;801;47.982;7.810;2023-02-15T03:30:29;99922.38;;;-0.11;100.00
1616;BME280;801;47.982;7.810;2023-02-15T03:32:58;99922.28;;;-0.02;100.00
1616;BME280;801;47.982;7.810;2023-02-15T03:35:33;99912.09;;;-0.23;100.00
1616;BME280;801;47.982;7.810;2023-02-15T03:38:03;99928.59;;;0.06;100.00
1616;BME280;801;47.982;7.810;2023-02-15T03:40:35;99925.50;;;-0.24;100.00
1616;BME280;801;47.982;7.810;2023-02-15T03:43:27;99931.38;;;-0.04;100.00
1616;BME280;801;47.982;7.810;2023-02-15T03:46:01;99932.06;;;0.06;100.00
1616;BME280;801;47.982;7.810;2023-02-15T03:48:33;99943.28;;;0.00;100.00
1616;BME280;801;47.982;7.810;2023-02-15T03:51:05;99940.31;;;0.03;100.00
1616;BME280;801;47.982;7.810;2023-02-15T03:53:52;99937.75;;;0.28;100.00
1616;BME280;801;47.982;7.810;2023-02-15T03:56:20;99932.72;;;0.08;100.00
1616;BME280;801;47.982;7.810;2023-02-15T03:58:47;99932.13;;;0.31;100.00
1616;BME280;801;47.982;7.810;2023-02-15T04:01:34;99937.91;;;0.18;100.00
1616;BME280;801;47.982;7.810;2023-02-15T04:04:22;99934.09;;;0.29;100.00
1616;BME280;801;47.982;7.810;2023-02-15T04:06:51;99932.69;;;0.43;100.00
1616;BME280;801;47.982;7.810;2023-02-15T04:09:18;99934.00;;;0.55;100.00
1616;BME280;801;47.982;7.810;2023-02-15T04:12:02;99929.91;;;0.69;100.00
1616;BME280;801;47.982;7.810;2023-02-15T04:14:29;99932.38;;;0.62;100.00
1616;BME280;801;47.982;7.810;2023-02-15T04:17:13;99927.59;;;0.74;100.00
1616;BME280;801;47.982;7.810;2023-02-15T04:19:39;99929.22;;;0.50;100.00
1616;BME280;801;47.982;7.810;2023-02-15T04:22:25;99929.53;;;0.55;100.00
1616;BME280;801;47.982;7.810;2023-02-15T04:25:08;99928.72;;;0.55;100.00
1616;BME280;801;47.982;7.810;2023-02-15T04:27:39;99932.13;;;0.31;100.00
1616;BME280;801;47.982;7.810;2023-02-15T04:30:07;99930.22;;;0.57;100.00
1616;BME280;801;47.982;7.810;2023-02-15T04:32:35;99926.09;;;0.63;100.00
1616;BME280;801;47.982;7.810;2023-02-15T04:35:02;99925.19;;;0.38;100.00
1616;BME280;801;47.982;7.810;2023-02-15T04:37:30;99925.19;;;0.30;100.00
1616;BME280;801;47.982;7.810;2023-02-15T04:39:56;99925.16;;;0.22;100.00
1616;BME280;801;47.982;7.810;2023-02-15T04:42:23;99921.84;;;-0.31;100.00
1616;BME280;801;47.982;7.810;2023-02-15T04:44:50;99926.47;;;0.09;100.00
1616;BME280;801;47.982;7.810;2023-02-15T04:47:16;99923.59;;;0.45;100.00
1616;BME280;801;47.982;7.810;2023-02-15T04:49:43;99914.69;;;0.54;100.00
1616;BME280;801;47.982;7.810;2023-02-15T04:52:10;99916.81;;;0.43;100.00
1616;BME280;801;47.982;7.810;2023-02-15T04:54:38;99912.25;;;0.10;100.00
1616;BME280;801;47.982;7.810;2023-02-15T04:57:05;99912.88;;;-0.04;100.00
1616;BME280;801;47.982;7.810;2023-02-15T04:59:32;99918.72;;;-0.18;100.00
1616;BME280;801;47.982;7.810;2023-02-15T05:01:58;99905.28;;;0.01;100.00
1616;BME280;801;47.982;7.810;2023-02-15T05:04:25;99906.44;;;0.07;100.00
1616;BME280;801;47.982;7.810;2023-02-15T05:06:51;99910.31;;;-0.14;100.00
1616;BME280;801;47.982;7.810;2023-02-15T05:09:18;99917.25;;;-0.47;100.00
1616;BME280;801;47.982;7.810;2023-02-15T05:11:45;99911.06;;;-0.38;100.00
1616;BME280;801;47.982;7.810;2023-02-15T05:14:12;99917.03;;;0.15;100.00
1616;BME280;801;47.982;7.810;2023-02-15T05:16:39;99919.41;;;0.18;100.00
1616;BME280;801;47.982;7.810;2023-02-15T05:19:05;99914.38;;;0.07;100.00
1616;BME280;801;47.982;7.810;2023-02-15T05:21:32;99919.09;;;-1.18;100.00
1616;BME280;801;47.982;7.810;2023-02-15T05:23:59;99911.38;;;-0.67;100.00
1616;BME280;801;47.982;7.810;2023-02-15T05:26:47;99911.25;;;-0.31;100.00
1616;BME280;801;47.982;7.810;2023-02-15T05:29:31;99919.97;;;-0.39;100.00
1616;BME280;801;47.982;7.810;2023-02-15T05:31:57;99923.16;;;0.07;100.00
1616;BME280;801;47.982;7.810;2023-02-15T05:34:24;99911.47;;;-0.16;100.00
1616;BME280;801;47.982;7.810;2023-02-15T05:36:50;99910.56;;;0.01;100.00
1616;BME280;801;47.982;7.810;2023-02-15T05:39:17;99926.31;;;0.19;100.00
1616;BME280;801;47.982;7.810;2023-02-15T05:41:43;99923.88;;;0.26;100.00
1616;BME280;801;47.982;7.810;2023-02-15T05:44:11;99923.56;;;0.37;100.00
1616;BME280;801;47.982;7.810;2023-02-15T05:46:37;99923.09;;;0.58;100.00
1616;BME280;801;47.982;7.810;2023-02-15T05:49:04;99929.88;;;0.52;100.00
1616;BME280;801;47.982;7.810;2023-02-15T05:51:31;99932.19;;;0.47;100.00
1616;BME280;801;47.982;7.810;2023-02-15T05:53:57;99933.81;;;0.32;100.00
1616;BME280;801;47.982;7.810;2023-02-15T05:56:24;99931.47;;;0.20;100.00
1616;BME280;801;47.982;7.810;2023-02-15T05:58:52;99938.47;;;0.04;100.00
1616;BME280;801;47.982;7.810;2023-02-15T06:01:20;99938.72;;;-0.16;100.00
1616;BME280;801;47.982;7.810;2023-02-15T06:03:48;99940.81;;;-0.28;100.00
1616;BME280;801;47.982;7.810;2023-02-15T06:06:15;99939.44;;;-0.40;100.00
1616;BME280;801;47.982;7.810;2023-02-15T06:08:41;99931.78;;;-0.51;100.00
1616;BME280;801;47.982;7.810;2023-02-15T06:11:08;99931.47;;;-0.14;100.00
1616;BME280;801;47.982;7.810;2023-02-15T06:13:35;99932.97;;;-0.11;100.00
1616;BME280;801;47.982;7.810;2023-02-15T06:16:02;99937.66;;;0.03;100.00
1616;BME280;801;47.982;7.810;2023-02-15T06:18:30;99934.88;;;-0.30;100.00
1616;BME280;801;47.982;7.810;2023-02-15T06:20:56;99934.56;;;-0.27;100.00
1616;BME280;801;47.982;7.810;2023-02-15T06:23:23;99937.03;;;-0.25;100.00
1616;BME280;801;47.982;7.810;2023-02-15T06:25:49;99937.28;;;-0.45;100.00
1616;BME280;801;47.982;7.810;2023-02-15T06:28:16;99944.09;;;-0.34;100.00
1616;BME280;801;47.982;7.810;2023-02-15T06:30:42;99950.53;;;-0.63;100.00
1616;BME280;801;47.982;7.810;2023-02-15T06:33:08;99956.00;;;-0.82;100.00
1616;BME280;801;47.982;7.810;2023-02-15T06:35:36;99949.31;;;-0.68;100.00
1616;BME280;801;47.982;7.810;2023-02-15T06:38:03;99953.28;;;-0.90;100.00
1616;BME280;801;47.982;7.810;2023-02-15T06:40:29;99951.31;;;-0.88;100.00
1616;BME280;801;47.982;7.810;2023-02-15T06:42:56;99948.25;;;-0.57;100.00
1616;BME280;801;47.982;7.810;2023-02-15T06:45:22;99951.50;;;-0.64;100.00
1616;BME280;801;47.982;7.810;2023-02-15T06:47:49;99957.94;;;-0.40;100.00
1616;BME280;801;47.982;7.810;2023-02-15T06:50:15;99950.53;;;-0.63;100.00
1616;BME280;801;47.982;7.810;2023-02-15T06:52:43;99950.63;;;-0.46;100.00
1616;BME280;801;47.982;7.810;2023-02-15T06:55:10;99960.06;;;-0.88;100.00
1616;BME280;801;47.982;7.810;2023-02-15T06:57:36;99963.78;;;-0.54;100.00
1616;BME280;801;47.982;7.810;2023-02-15T07:00:03;99966.75;;;-0.49;100.00
1616;BME280;801;47.982;7.810;2023-02-15T07:02:31;99962.22;;;-0.39;100.00
1616;BME280;801;47.982;7.810;2023-02-15T07:04:57;99964.59;;;-0.80;100.00
1616;BME280;801;47.982;7.810;2023-02-15T07:07:24;99957.38;;;-0.96;100.00
1616;BME280;801;47.982;7.810;2023-02-15T07:09:52;99956.00;;;-0.56;100.00
1616;BME280;801;47.982;7.810;2023-02-15T07:12:18;99957.28;;;-0.34;100.00
1616;BME280;801;47.982;7.810;2023-02-15T07:15:03;99959.94;;;-0.34;100.00
1616;BME280;801;47.982;7.810;2023-02-15T07:17:31;99962.75;;;-0.35;100.00
1616;BME280;801;47.982;7.810;2023-02-15T07:19:58;99960.53;;;-0.14;100.00
1616;BME280;801;47.982;7.810;2023-02-15T07:22:24;99958.50;;;-0.28;100.00
1616;BME280;801;47.982;7.810;2023-02-15T07:24:52;99960.94;;;-0.79;100.00
1616;BME280;801;47.982;7.810;2023-02-15T07:27:20;99956.25;;;-0.41;100.00
1616;BME280;801;47.982;7.810;2023-02-15T07:29:46;99958.28;;;-0.35;100.00
1616;BME280;801;47.982;7.810;2023-02-15T07:32:13;99954.09;;;-0.90;100.00
1616;BME280;801;47.982;7.810;2023-02-15T07:34:40;99948.44;;;-0.77;100.00
1616;BME280;801;47.982;7.810;2023-02-15T07:37:06;99960.34;;;-0.73;100.00
1616;BME280;801;47.982;7.810;2023-02-15T07:39:33;99955.81;;;-0.80;100.00
1616;BME280;801;47.982;7.810;2023-02-15T07:42:01;99951.41;;;-0.98;100.00
1616;BME280;801;47.982;7.810;2023-02-15T07:44:27;99945.84;;;-0.69;100.00
1616;BME280;801;47.982;7.810;2023-02-15T07:46:53;99940.50;;;-0.25;100.00
1616;BME280;801;47.982;7.810;2023-02-15T07:49:20;99934.75;;;-0.20;100.00
1616;BME280;801;47.982;7.810;2023-02-15T07:51:46;99941.50;;;-0.52;100.00
1616;BME280;801;47.982;7.810;2023-02-15T07:54:13;99927.03;;;-0.13;100.00
1616;BME280;801;47.982;7.810;2023-02-15T07:56:39;99941.16;;;-0.23;100.00
1616;BME280;801;47.982;7.810;2023-02-15T07:59:07;99937.84;;;-0.25;100.00
1616;BME280;801;47.982;7.810;2023-02-15T08:01:35;99932.09;;;0.14;100.00
1616;BME280;801;47.982;7.810;2023-02-15T08:04:03;99934.50;;;-0.01;100.00
1616;BME280;801;47.982;7.810;2023-02-15T08:06:32;99938.63;;;0.02;100.00
1616;BME280;801;47.982;7.810;2023-02-15T08:09:00;99936.38;;;0.07;100.00
1616;BME280;801;47.982;7.810;2023-02-15T08:11:28;99933.09;;;0.22;100.00
1616;BME280;801;47.982;7.810;2023-02-15T08:13:58;99934.44;;;0.26;100.00
1616;BME280;801;47.982;7.810;2023-02-15T08:16:30;99934.88;;;-0.30;100.00
1616;BME280;801;47.982;7.810;2023-02-15T08:18:58;99932.50;;;-0.41;100.00
1616;BME280;801;47.982;7.810;2023-02-15T08:21:26;99929.28;;;-0.27;100.00
1616;BME280;801;47.982;7.810;2023-02-15T08:23:53;99941.09;;;-0.65;100.00
1616;BME280;801;47.982;7.810;2023-02-15T08:26:20;99939.75;;;-0.43;100.00
1616;BME280;801;47.982;7.810;2023-02-15T08:28:46;99933.22;;;-0.31;100.00
1616;BME280;801;47.982;7.810;2023-02-15T08:31:14;99933.81;;;-0.03;100.00
1616;BME280;801;47.982;7.810;2023-02-15T08:33:44;99942.41;;;-0.09;100.00
1616;BME280;801;47.982;7.810;2023-02-15T08:36:13;99937.91;;;-0.43;100.00
1616;BME280;801;47.982;7.810;2023-02-15T08:38:40;99946.53;;;-0.67;100.00
1616;BME280;801;47.982;7.810;2023-02-15T08:41:14;99930.19;;;-0.36;100.00
1616;BME280;801;47.982;7.810;2023-02-15T08:43:42;99935.19;;;-0.33;100.00
1616;BME280;801;47.982;7.810;2023-02-15T08:46:11;99929.16;;;-0.17;100.00
1616;BME280;801;47.982;7.810;2023-02-15T08:48:38;99929.13;;;0.17;100.00
1616;BME280;801;47.982;7.810;2023-02-15T08:51:07;99922.84;;;0.18;100.00
1616;BME280;801;47.982;7.810;2023-02-15T08:53:36;99921.28;;;0.50;100.00
1616;BME280;801;47.982;7.810;2023-02-15T08:56:02;99928.06;;;0.53;100.00
1616;BME280;801;47.982;7.810;2023-02-15T08:58:29;99916.63;;;0.44;100.00
1616;BME280;801;47.982;7.810;2023-02-15T09:00:57;99909.88;;;0.50;100.00
1616;BME280;801;47.982;7.810;2023-02-15T09:03:23;99903.44;;;0.60;100.00
1616;BME280;801;47.982;7.810;2023-02-15T09:05:50;99911.72;;;0.74;100.00
1616;BME280;801;47.982;7.810;2023-02-15T09:08:18;99914.50;;;0.64;100.00
1616;BME280;801;47.982;7.810;2023-02-15T09:10:45;99907.41;;;0.97;100.00
1616;BME280;801;47.982;7.810;2023-02-15T09:13:11;99907.41;;;0.65;100.00
1616;BME280;801;47.982;7.810;2023-02-15T09:15:38;99898.47;;;0.66;100.00
1616;BME280;801;47.982;7.810;2023-02-15T09:18:04;99905.94;;;0.95;100.00
1616;BME280;801;47.982;7.810;2023-02-15T09:20:35;99900.94;;;0.43;100.00
1616;BME280;801;47.982;7.810;2023-02-15T09:23:02;99905.72;;;0.55;100.00
1616;BME280;801;47.982;7.810;2023-02-15T09:25:29;99908.78;;;0.10;100.00
1616;BME280;801;47.982;7.810;2023-02-15T09:27:56;99897.72;;;0.14;100.00
1616;BME280;801;47.982;7.810;2023-02-15T09:30:22;99907.22;;;0.58;100.00
1616;BME280;801;47.982;7.810;2023-02-15T09:32:49;99911.72;;;0.90;100.00
1616;BME280;801;47.982;7.810;2023-02-15T09:35:15;99905.72;;;1.29;100.00
1616;BME280;801;47.982;7.810;2023-02-15T09:37:42;99909.41;;;0.71;100.00
1616;BME280;801;47.982;7.810;2023-02-15T09:40:11;99906.78;;;0.87;100.00
1616;BME280;801;47.982;7.810;2023-02-15T09:43:05;99906.06;;;0.52;100.00
1616;BME280;801;47.982;7.810;2023-02-15T09:45:45;99901.47;;;0.79;100.00
1616;BME280;801;47.982;7.810;2023-02-15T09:48:36;99905.75;;;0.64;100.00
1616;BME280;801;47.982;7.810;2023-02-15T09:51:18;99898.78;;;0.62;100.00
1616;BME280;801;47.982;7.810;2023-02-15T09:53:59;99904.09;;;0.62;100.00
1616;BME280;801;47.982;7.810;2023-02-15T09:56:33;99908.41;;;0.72;100.00
1616;BME280;801;47.982;7.810;2023-02-15T09:59:11;99913.84;;;0.62;100.00
1616;BME280;801;47.982;7.810;2023-02-15T10:01:50;99913.31;;;0.42;100.00
1616;BME280;801;47.982;7.810;2023-02-15T10:04:36;99906.75;;;0.71;100.00
1616;BME280;801;47.982;7.810;2023-02-15T10:07:16;99909.97;;;-0.19;100.00
1616;BME280;801;47.982;7.810;2023-02-15T10:09:55;99913.72;;;0.88;100.00
1616;BME280;801;47.982;7.810;2023-02-15T10:12:42;99915.97;;;1.57;100.00
1616;BME280;801;47.982;7.810;2023-02-15T10:15:23;99907.47;;;1.70;100.00
1616;BME280;801;47.982;7.810;2023-02-15T10:18:21;99904.69;;;1.55;100.00
1616;BME280;801;47.982;7.810;2023-02-15T10:20:55;99903.44;;;1.18;100.00
1616;BME280;801;47.982;7.810;2023-02-15T10:23:36;99903.44;;;1.01;100.00
1616;BME280;801;47.982;7.810;2023-02-15T10:26:11;99899.25;;;1.32;100.00
1616;BME280;801;47.982;7.810;2023-02-15T10:28:45;99893.44;;;1.61;100.00
1616;BME280;801;47.982;7.810;2023-02-15T10:31:21;99895.06;;;1.62;100.00
1616;BME280;801;47.982;7.810;2023-02-15T10:33:55;99896.28;;;1.99;100.00
1616;BME280;801;47.982;7.810;2023-02-15T10:36:38;99894.84;;;1.80;100.00
1616;BME280;801;47.982;7.810;2023-02-15T10:39:16;99892.69;;;1.83;100.00
1616;BME280;801;47.982;7.810;2023-02-15T10:41:51;99896.44;;;1.50;100.00
1616;BME280;801;47.982;7.810;2023-02-15T10:44:32;99890.53;;;2.18;100.00
1616;BME280;801;47.982;7.810;2023-02-15T10:47:19;99884.69;;;2.23;100.00
1616;BME280;801;47.982;7.810;2023-02-15T10:50:11;99890.25;;;2.05;100.00
1616;BME280;801;47.982;7.810;2023-02-15T10:52:51;99879.31;;;2.08;100.00
1616;BME280;801;47.982;7.810;2023-02-15T10:55:30;99876.56;;;1.93;100.00
1616;BME280;801;47.982;7.810;2023-02-15T10:58:07;99870.03;;;2.35;100.00
1616;BME280;801;47.982;7.810;2023-02-15T11:00:41;99877.59;;;2.46;100.00
1616;BME280;801;47.982;7.810;2023-02-15T11:03:25;99873.53;;;2.82;100.00
1616;BME280;801;47.982;7.810;2023-02-15T11:06:01;99864.88;;;2.11;100.00
1616;BME280;801;47.982;7.810;2023-02-15T11:08:32;99861.78;;;3.14;100.00
1616;BME280;801;47.982;7.810;2023-02-15T11:11:02;99858.41;;;3.80;100.00
1616;BME280;801;47.982;7.810;2023-02-15T11:13:33;99850.78;;;4.71;100.00
1616;BME280;801;47.982;7.810;2023-02-15T11:16:02;99853.38;;;5.42;100.00
1616;BME280;801;47.982;7.810;2023-02-15T11:18:34;99845.34;;;6.12;100.00
1616;BME280;801;47.982;7.810;2023-02-15T11:21:07;99841.91;;;6.44;100.00
1616;BME280;801;47.982;7.810;2023-02-15T11:23:41;99838.66;;;6.69;100.00
1616;BME280;801;47.982;7.810;2023-02-15T11:26:13;99833.50;;;7.01;100.00
1616;BME280;801;47.982;7.810;2023-02-15T11:28:46;99831.06;;;6.93;100.00
1616;BME280;801;47.982;7.810;2023-02-15T11:31:17;99824.69;;;6.67;100.00
1616;BME280;801;47.982;7.810;2023-02-15T11:33:47;99817.22;;;6.29;100.00
1616;BME280;801;47.982;7.810;2023-02-15T11:36:19;99821.59;;;6.50;100.00
1616;BME280;801;47.982;7.810;2023-02-15T11:38:50;99813.53;;;7.37;100.00
1616;BME280;801;47.982;7.810;2023-02-15T11:41:21;99813.19;;;6.80;100.00
1616;BME280;801;47.982;7.810;2023-02-15T11:43:51;99813.22;;;7.72;100.00
1616;BME280;801;47.982;7.810;2023-02-15T11:46:20;99805.72;;;7.42;100.00
1616;BME280;801;47.982;7.810;2023-02-15T11:48:48;99803.69;;;7.31;100.00
1616;BME280;801;47.982;7.810;2023-02-15T11:51:17;99792.69;;;7.52;100.00
1616;BME280;801;47.982;7.810;2023-02-15T11:53:45;99794.22;;;7.35;100.00
1616;BME280;801;47.982;7.810;2023-02-15T11:56:14;99787.56;;;8.34;100.00
1616;BME280;801;47.982;7.810;2023-02-15T11:58:43;99779.38;;;7.25;100.00
1616;BME280;801;47.982;7.810;2023-02-15T12:01:15;99786.31;;;7.53;100.00
1616;BME280;801;47.982;7.810;2023-02-15T12:03:46;99780.47;;;8.53;100.00
1616;BME280;801;47.982;7.810;2023-02-15T12:06:18;99770.31;;;7.92;100.00
1616;BME280;801;47.982;7.810;2023-02-15T12:08:52;99769.25;;;8.31;100.00
1616;BME280;801;47.982;7.810;2023-02-15T12:11:23;99768.16;;;8.39;100.00
1616;BME280;801;47.982;7.810;2023-02-15T12:13:57;99762.88;;;7.55;100.00
1616;BME280;801;47.982;7.810;2023-02-15T12:16:25;99765.13;;;8.35;100.00
1616;BME280;801;47.982;7.810;2023-02-15T12:18:55;99755.00;;;7.60;100.00
1616;BME280;801;47.982;7.810;2023-02-15T12:21:29;99752.53;;;8.36;100.00
1616;BME280;801;47.982;7.810;2023-02-15T12:23:58;99754.44;;;8.60;100.00
1616;BME280;801;47.982;7.810;2023-02-15T12:26:27;99752.47;;;8.17;100.00
1616;BME280;801;47.982;7.810;2023-02-15T12:28:58;99744.97;;;8.83;100.00
1616;BME280;801;47.982;7.810;2023-02-15T12:31:30;99743.78;;;8.54;100.00
1616;BME280;801;47.982;7.810;2023-02-15T12:34:00;99733.63;;;9.24;100.00
1616;BME280;801;47.982;7.810;2023-02-15T12:36:30;99730.41;;;9.16;98.88
1616;BME280;801;47.982;7.810;2023-02-15T12:39:18;99723.38;;;8.78;100.00
1616;BME280;801;47.982;7.810;2023-02-15T12:41:56;99729.69;;;9.02;100.00
1616;BME280;801;47.982;7.810;2023-02-15T12:44:24;99729.56;;;10.12;96.58
1616;BME280;801;47.982;7.810;2023-02-15T12:47:00;99722.97;;;9.18;96.50
1616;BME280;801;47.982;7.810;2023-02-15T12:49:27;99724.84;;;9.96;95.79
1616;BME280;801;47.982;7.810;2023-02-15T12:51:57;99721.03;;;11.05;93.73
1616;BME280;801;47.982;7.810;2023-02-15T12:54:38;99720.16;;;11.39;86.10
1616;BME280;801;47.982;7.810;2023-02-15T12:57:21;99711.72;;;10.18;88.89
1616;BME280;801;47.982;7.810;2023-02-15T12:59:49;99711.34;;;9.72;91.84
1616;BME280;801;47.982;7.810;2023-02-15T13:02:21;99709.19;;;9.93;94.63
1616;BME280;801;47.982;7.810;2023-02-15T13:04:49;99710.28;;;10.81;92.59
1616;BME280;801;47.982;7.810;2023-02-15T13:07:17;99712.50;;;10.96;90.73
1616;BME280;801;47.982;7.810;2023-02-15T13:09:46;99715.16;;;9.95;92.45
1616;BME280;801;47.982;7.810;2023-02-15T13:12:18;99709.72;;;10.79;92.50
1616;BME280;801;47.982;7.810;2023-02-15T13:14:48;99706.44;;;10.65;92.45
1616;BME280;801;47.982;7.810;2023-02-15T13:17:18;99712.53;;;10.61;93.67
1616;BME280;801;47.982;7.810;2023-02-15T13:19:47;99706.03;;;11.32;90.85
1616;BME280;801;47.982;7.810;2023-02-15T13:22:20;99703.75;;;10.77;90.99
1616;BME280;801;47.982;7.810;2023-02-15T13:24:50;99695.31;;;10.73;95.93
1616;BME280;801;47.982;7.810;2023-02-15T13:27:20;99694.50;;;12.06;87.56
1616;BME280;801;47.982;7.810;2023-02-15T13:29:49;99690.44;;;11.63;88.54
1616;BME280;801;47.982;7.810;2023-02-15T13:32:25;99686.31;;;12.01;88.57
1616;BME280;801;47.982;7.810;2023-02-15T13:34:54;99688.81;;;12.36;84.15
1616;BME280;801;47.982;7.810;2023-02-15T13:37:36;99685.72;;;12.44;84.34
1616;BME280;801;47.982;7.810;2023-02-15T13:40:11;99686.75;;;11.81;86.01
1616;BME280;801;47.982;7.810;2023-02-15T13:42:41;99679.38;;;11.19;88.56
1616;BME280;801;47.982;7.810;2023-02-15T13:45:26;99679.13;;;11.90;88.24
1616;BME280;801;47.982;7.810;2023-02-15T13:47:59;99673.91;;;12.67;83.48
1616;BME280;801;47.982;7.810;2023-02-15T13:50:39;99671.16;;;13.23;77.62